Invader — WDC6283 — position and weather

sailwx.info

Track history (hours):
 
Tides and Currents Weather Stations Pressure Air Temp Water Temp Dewpoint Dewpoint Depression Visibility Wind Speed Wind Dir Waves Ship Positions

Invader

Owner: Nautical Investiment Corporation, Amelia, LA. More information available from US FCC via Universal Licensing System and Coast Guard Vessel Documentation Center.

Last reported at 2015-Jan-29 09:33 UTC. Time now 2015-Jan-29 10:24 UTC.
Position N 29°28' W 091°17'.

Length 40 m; draft 3 m.

Type: Passenger vessel. MMSI: 367053990.

Date/timePositionNaut miles runAvg speedWind from/ knotsBaromVisibWave heightAir tempDewpointWater temp
2015-Jan-29 09:33N 29°28' W 091°17'1313.5
2015-Jan-29 08:33N 29°41' W 091°13'1 1.4
2015-Jan-29 07:33N 29°41' W 091°12'0 0.0
2015-Jan-29 06:33N 29°41' W 091°12'0 0.0
2015-Jan-29 05:33N 29°41' W 091°12'0 0.0
2015-Jan-29 04:33N 29°41' W 091°12'0 0.0
2015-Jan-29 03:33N 29°41' W 091°12'0 0.0
2015-Jan-29 02:33N 29°41' W 091°12'0 0.0
2015-Jan-29 01:33N 29°41' W 091°12'0 0.0
2015-Jan-29 00:33N 29°41' W 091°12'0 0.0
2015-Jan-28 23:33N 29°41' W 091°12'10 8.8
2015-Jan-28 22:27N 29°32' W 091°16'9 0.6
2015-Jan-28 07:33N 29°25' W 091°21'1616.3
2015-Jan-28 06:33N 29°40' W 091°14'3 2.6
2015-Jan-28 05:34N 29°41' W 091°12'0 0.0
2015-Jan-28 04:34N 29°41' W 091°12'0 0.0
2015-Jan-28 03:34N 29°41' W 091°12'0 0.0
2015-Jan-28 02:33N 29°41' W 091°12'0 0.0
2015-Jan-28 01:33N 29°41' W 091°12'0 0.0
2015-Jan-28 00:33N 29°41' W 091°12'0 0.0
2015-Jan-27 23:33N 29°41' W 091°12'0 0.0
2015-Jan-27 22:34N 29°41' W 091°12'0 0.0
2015-Jan-27 21:33N 29°41' W 091°12'0 0.0
2015-Jan-27 20:34N 29°41' W 091°12'0 0.0
2015-Jan-27 19:34N 29°41' W 091°12'0 0.0
2015-Jan-27 18:34N 29°41' W 091°12'0 0.0
2015-Jan-27 17:33N 29°41' W 091°12'0 0.0
2015-Jan-27 16:33N 29°41' W 091°12'0 0.0
2015-Jan-27 15:34N 29°41' W 091°12'0 0.0
2015-Jan-27 14:33N 29°41' W 091°12'0 0.0
2015-Jan-27 13:33N 29°41' W 091°12'0 0.0
2015-Jan-27 12:34N 29°41' W 091°12'0 0.0
2015-Jan-27 11:33N 29°41' W 091°12'0 0.0
2015-Jan-27 10:34N 29°41' W 091°12'0 0.0
2015-Jan-27 09:34N 29°41' W 091°12'0 0.0
2015-Jan-27 08:33N 29°41' W 091°12'0 0.0
2015-Jan-27 07:33N 29°41' W 091°12'0 0.0
2015-Jan-27 06:34N 29°41' W 091°12'0 0.0
2015-Jan-27 05:33N 29°41' W 091°12'0 0.0
2015-Jan-27 04:34N 29°41' W 091°12'0 0.0
2015-Jan-27 03:34N 29°41' W 091°12'0 0.0
2015-Jan-27 02:34N 29°41' W 091°12'0 0.0
2015-Jan-27 01:34N 29°41' W 091°12'0 0.0
2015-Jan-27 00:33N 29°41' W 091°12'2 2.5
2015-Jan-26 23:34N 29°40' W 091°14'0 0.0
2015-Jan-26 22:34N 29°40' W 091°14'0 0.3
2015-Jan-26 21:33N 29°40' W 091°14'1513.9
2015-Jan-26 20:28N 29°25' W 091°20'5 0.5
2015-Jan-26 10:28N 29°22' W 091°24'1516.7
2015-Jan-26 09:33N 29°34' W 091°14'7 7.2
2015-Jan-26 08:33N 29°41' W 091°12'0 0.0
2015-Jan-26 07:33N 29°41' W 091°12'0 0.0
2015-Jan-26 06:33N 29°41' W 091°12'4 3.7
2015-Jan-26 05:34N 29°38' W 091°14'1413.6
2015-Jan-26 04:33N 29°26' W 091°20'5 0.4
2015-Jan-25 17:29N 29°22' W 091°23'1516.3
2015-Jan-25 16:33N 29°34' W 091°14'7 7.2
2015-Jan-25 15:33N 29°41' W 091°12'0 0.4
2015-Jan-25 14:33N 29°41' W 091°12'0 0.4
2015-Jan-25 13:33N 29°41' W 091°12'0 0.0
2015-Jan-25 12:33N 29°41' W 091°12'0 0.0
2015-Jan-25 11:33N 29°41' W 091°12'0 0.0
2015-Jan-25 10:33N 29°41' W 091°12'0 0.0
2015-Jan-25 09:33N 29°41' W 091°12'0 0.0
2015-Jan-25 08:33N 29°41' W 091°12'0 0.0
2015-Jan-25 07:33N 29°41' W 091°12'0 0.0
2015-Jan-25 06:33N 29°41' W 091°12'0 0.0
2015-Jan-25 05:33N 29°41' W 091°12'0 0.0
2015-Jan-25 04:33N 29°41' W 091°12'8 8.1
2015-Jan-25 03:34N 29°33' W 091°14'1615.7
2015-Jan-25 02:33N 29°21' W 091°25'6 0.5
2015-Jan-24 15:30N 29°25' W 091°20'1213.2
2015-Jan-24 14:34N 29°37' W 091°15'5 5.4
2015-Jan-24 13:33N 29°41' W 091°12'0 0.0
2015-Jan-24 12:33N 29°41' W 091°12'0 0.0
2015-Jan-24 11:33N 29°41' W 091°12'0 0.0
2015-Jan-24 10:34N 29°41' W 091°12'0 0.0
2015-Jan-24 09:34N 29°41' W 091°12'0 0.0
2015-Jan-24 08:33N 29°41' W 091°12'0 0.0
2015-Jan-24 07:33N 29°41' W 091°12'0 0.0
2015-Jan-24 06:33N 29°41' W 091°12'0 0.0
2015-Jan-24 05:33N 29°41' W 091°12'0 0.0
2015-Jan-24 04:33N 29°41' W 091°12'0 0.0
2015-Jan-24 03:33N 29°41' W 091°12'0 0.0
2015-Jan-24 02:33N 29°41' W 091°12'0 0.0
2015-Jan-24 01:33N 29°41' W 091°12'0 0.0
2015-Jan-24 00:33N 29°41' W 091°12'2 2.1
2015-Jan-23 23:33N 29°40' W 091°14'0 0.3
2015-Jan-23 22:33N 29°40' W 091°14'2 2.4
2015-Jan-23 21:33N 29°41' W 091°12'0 0.0
2015-Jan-23 20:33N 29°41' W 091°12'0 0.0
2015-Jan-23 19:33N 29°41' W 091°12'0 0.0
2015-Jan-23 18:34N 29°41' W 091°12'0 0.0
2015-Jan-23 17:34N 29°41' W 091°12'0 0.0
2015-Jan-23 16:33N 29°41' W 091°12'0 0.0
2015-Jan-23 15:34N 29°41' W 091°12'0 0.0
2015-Jan-23 14:33N 29°41' W 091°12'0 0.0
2015-Jan-23 13:33N 29°41' W 091°12'0 0.0
2015-Jan-23 12:34N 29°41' W 091°12'0 0.0
2015-Jan-23 11:34N 29°41' W 091°12'0 0.0
2015-Jan-23 10:33N 29°41' W 091°12'0 0.0
2015-Jan-23 09:33N 29°41' W 091°12'0 0.0
2015-Jan-23 08:33N 29°41' W 091°12'0 0.0
2015-Jan-23 07:33N 29°41' W 091°12'0 0.0
2015-Jan-23 06:33N 29°41' W 091°12'0 0.0
2015-Jan-23 05:33N 29°41' W 091°12'0 0.0
2015-Jan-23 04:33N 29°41' W 091°12'0 0.0
2015-Jan-23 03:33N 29°41' W 091°12'0 0.0
2015-Jan-23 02:33N 29°41' W 091°12'1 0.9
2015-Jan-23 01:33N 29°41' W 091°13'1010.4
2015-Jan-23 00:34N 29°31' W 091°16'15 1.0
2015-Jan-22 09:18N 29°19' W 091°26'1418.4
2015-Jan-22 08:34N 29°29' W 091°16'1212.5
2015-Jan-22 07:34N 29°41' W 091°12'0 0.1
2015-Jan-22 06:33N 29°41' W 091°12'0 0.0
2015-Jan-22 05:33N 29°41' W 091°12'2 2.0
2015-Jan-22 04:33N 29°40' W 091°14'1313.5
2015-Jan-22 03:34N 29°27' W 091°17'5 0.3
2015-Jan-21 11:34N 29°24' W 091°22'1313.3
2015-Jan-21 10:33N 29°35' W 091°14'5 4.7
2015-Jan-21 09:33N 29°40' W 091°14'2 1.6
2015-Jan-21 08:33N 29°41' W 091°13'1 1.0
2015-Jan-21 07:33N 29°41' W 091°12'0 0.0
2015-Jan-21 06:33N 29°41' W 091°12'9 9.5
2015-Jan-21 05:34N 29°32' W 091°16'1413.5
2015-Jan-21 04:33N 29°21' W 091°24'2 0.1
2015-Jan-20 11:13N 29°20' W 091°25'1320.1
2015-Jan-20 10:33N 29°31' W 091°16'1111.2
2015-Jan-20 09:33N 29°41' W 091°12'0 0.1
2015-Jan-20 08:33N 29°41' W 091°12'0 0.0
2015-Jan-20 07:33N 29°41' W 091°12'0 0.4
2015-Jan-20 06:33N 29°41' W 091°12'3 2.9
2015-Jan-20 05:33N 29°39' W 091°14'1111.2
2015-Jan-20 04:34N 29°28' W 091°17'  
Track history (hours):
 
Tides and Currents Weather Stations Pressure Air Temp Water Temp Dewpoint Dewpoint Depression Visibility Wind Speed Wind Dir Waves Ship Positions

Invader

Owner: Nautical Investiment Corporation, Amelia, LA. More information available from US FCC via Universal Licensing System and Coast Guard Vessel Documentation Center.

Last reported at 2015-Jan-29 09:33 UTC. Time now 2015-Jan-29 10:24 UTC.
Position N 29°28' W 091°17'.

Length 40 m; draft 3 m.

Type: Passenger vessel. MMSI: 367053990.

Date/timePositionNaut miles runAvg speedWind from/ knotsBaromVisibWave heightAir tempDewpointWater temp
2015-Jan-29 09:33N 29°28' W 091°17'1313.5
2015-Jan-29 08:33N 29°41' W 091°13'1 1.4
2015-Jan-29 07:33N 29°41' W 091°12'0 0.0
2015-Jan-29 06:33N 29°41' W 091°12'0 0.0
2015-Jan-29 05:33N 29°41' W 091°12'0 0.0
2015-Jan-29 04:33N 29°41' W 091°12'0 0.0
2015-Jan-29 03:33N 29°41' W 091°12'0 0.0
2015-Jan-29 02:33N 29°41' W 091°12'0 0.0
2015-Jan-29 01:33N 29°41' W 091°12'0 0.0
2015-Jan-29 00:33N 29°41' W 091°12'0 0.0
2015-Jan-28 23:33N 29°41' W 091°12'10 8.8
2015-Jan-28 22:27N 29°32' W 091°16'9 0.6
2015-Jan-28 07:33N 29°25' W 091°21'1616.3
2015-Jan-28 06:33N 29°40' W 091°14'3 2.6
2015-Jan-28 05:34N 29°41' W 091°12'0 0.0
2015-Jan-28 04:34N 29°41' W 091°12'0 0.0
2015-Jan-28 03:34N 29°41' W 091°12'0 0.0
2015-Jan-28 02:33N 29°41' W 091°12'0 0.0
2015-Jan-28 01:33N 29°41' W 091°12'0 0.0
2015-Jan-28 00:33N 29°41' W 091°12'0 0.0
2015-Jan-27 23:33N 29°41' W 091°12'0 0.0
2015-Jan-27 22:34N 29°41' W 091°12'0 0.0
2015-Jan-27 21:33N 29°41' W 091°12'0 0.0
2015-Jan-27 20:34N 29°41' W 091°12'0 0.0
2015-Jan-27 19:34N 29°41' W 091°12'0 0.0
2015-Jan-27 18:34N 29°41' W 091°12'0 0.0
2015-Jan-27 17:33N 29°41' W 091°12'0 0.0
2015-Jan-27 16:33N 29°41' W 091°12'0 0.0
2015-Jan-27 15:34N 29°41' W 091°12'0 0.0
2015-Jan-27 14:33N 29°41' W 091°12'0 0.0
2015-Jan-27 13:33N 29°41' W 091°12'0 0.0
2015-Jan-27 12:34N 29°41' W 091°12'0 0.0
2015-Jan-27 11:33N 29°41' W 091°12'0 0.0
2015-Jan-27 10:34N 29°41' W 091°12'0 0.0
2015-Jan-27 09:34N 29°41' W 091°12'0 0.0
2015-Jan-27 08:33N 29°41' W 091°12'0 0.0
2015-Jan-27 07:33N 29°41' W 091°12'0 0.0
2015-Jan-27 06:34N 29°41' W 091°12'0 0.0
2015-Jan-27 05:33N 29°41' W 091°12'0 0.0
2015-Jan-27 04:34N 29°41' W 091°12'0 0.0
2015-Jan-27 03:34N 29°41' W 091°12'0 0.0
2015-Jan-27 02:34N 29°41' W 091°12'0 0.0
2015-Jan-27 01:34N 29°41' W 091°12'0 0.0
2015-Jan-27 00:33N 29°41' W 091°12'2 2.5
2015-Jan-26 23:34N 29°40' W 091°14'0 0.0
2015-Jan-26 22:34N 29°40' W 091°14'0 0.3
2015-Jan-26 21:33N 29°40' W 091°14'1513.9
2015-Jan-26 20:28N 29°25' W 091°20'5 0.5
2015-Jan-26 10:28N 29°22' W 091°24'1516.7
2015-Jan-26 09:33N 29°34' W 091°14'7 7.2
2015-Jan-26 08:33N 29°41' W 091°12'0 0.0
2015-Jan-26 07:33N 29°41' W 091°12'0 0.0
2015-Jan-26 06:33N 29°41' W 091°12'4 3.7
2015-Jan-26 05:34N 29°38' W 091°14'1413.6
2015-Jan-26 04:33N 29°26' W 091°20'5 0.4
2015-Jan-25 17:29N 29°22' W 091°23'1516.3
2015-Jan-25 16:33N 29°34' W 091°14'7 7.2
2015-Jan-25 15:33N 29°41' W 091°12'0 0.4
2015-Jan-25 14:33N 29°41' W 091°12'0 0.4
2015-Jan-25 13:33N 29°41' W 091°12'0 0.0
2015-Jan-25 12:33N 29°41' W 091°12'0 0.0
2015-Jan-25 11:33N 29°41' W 091°12'0 0.0
2015-Jan-25 10:33N 29°41' W 091°12'0 0.0
2015-Jan-25 09:33N 29°41' W 091°12'0 0.0
2015-Jan-25 08:33N 29°41' W 091°12'0 0.0
2015-Jan-25 07:33N 29°41' W 091°12'0 0.0
2015-Jan-25 06:33N 29°41' W 091°12'0 0.0
2015-Jan-25 05:33N 29°41' W 091°12'0 0.0
2015-Jan-25 04:33N 29°41' W 091°12'8 8.1
2015-Jan-25 03:34N 29°33' W 091°14'1615.7
2015-Jan-25 02:33N 29°21' W 091°25'6 0.5
2015-Jan-24 15:30N 29°25' W 091°20'1213.2
2015-Jan-24 14:34N 29°37' W 091°15'5 5.4
2015-Jan-24 13:33N 29°41' W 091°12'0 0.0
2015-Jan-24 12:33N 29°41' W 091°12'0 0.0
2015-Jan-24 11:33N 29°41' W 091°12'0 0.0
2015-Jan-24 10:34N 29°41' W 091°12'0 0.0
2015-Jan-24 09:34N 29°41' W 091°12'0 0.0
2015-Jan-24 08:33N 29°41' W 091°12'0 0.0
2015-Jan-24 07:33N 29°41' W 091°12'0 0.0
2015-Jan-24 06:33N 29°41' W 091°12'0 0.0
2015-Jan-24 05:33N 29°41' W 091°12'0 0.0
2015-Jan-24 04:33N 29°41' W 091°12'0 0.0
2015-Jan-24 03:33N 29°41' W 091°12'0 0.0
2015-Jan-24 02:33N 29°41' W 091°12'0 0.0
2015-Jan-24 01:33N 29°41' W 091°12'0 0.0
2015-Jan-24 00:33N 29°41' W 091°12'2 2.1
2015-Jan-23 23:33N 29°40' W 091°14'0 0.3
2015-Jan-23 22:33N 29°40' W 091°14'2 2.4
2015-Jan-23 21:33N 29°41' W 091°12'0 0.0
2015-Jan-23 20:33N 29°41' W 091°12'0 0.0
2015-Jan-23 19:33N 29°41' W 091°12'0 0.0
2015-Jan-23 18:34N 29°41' W 091°12'0 0.0
2015-Jan-23 17:34N 29°41' W 091°12'0 0.0
2015-Jan-23 16:33N 29°41' W 091°12'0 0.0
2015-Jan-23 15:34N 29°41' W 091°12'0 0.0
2015-Jan-23 14:33N 29°41' W 091°12'0 0.0
2015-Jan-23 13:33N 29°41' W 091°12'0 0.0
2015-Jan-23 12:34N 29°41' W 091°12'0 0.0
2015-Jan-23 11:34N 29°41' W 091°12'0 0.0
2015-Jan-23 10:33N 29°41' W 091°12'0 0.0
2015-Jan-23 09:33N 29°41' W 091°12'0 0.0
2015-Jan-23 08:33N 29°41' W 091°12'0 0.0
2015-Jan-23 07:33N 29°41' W 091°12'0 0.0
2015-Jan-23 06:33N 29°41' W 091°12'0 0.0
2015-Jan-23 05:33N 29°41' W 091°12'0 0.0
2015-Jan-23 04:33N 29°41' W 091°12'0 0.0
2015-Jan-23 03:33N 29°41' W 091°12'0 0.0
2015-Jan-23 02:33N 29°41' W 091°12'1 0.9
2015-Jan-23 01:33N 29°41' W 091°13'1010.4
2015-Jan-23 00:34N 29°31' W 091°16'15 1.0
2015-Jan-22 09:18N 29°19' W 091°26'1418.4
2015-Jan-22 08:34N 29°29' W 091°16'1212.5
2015-Jan-22 07:34N 29°41' W 091°12'0 0.1
2015-Jan-22 06:33N 29°41' W 091°12'0 0.0
2015-Jan-22 05:33N 29°41' W 091°12'2 2.0
2015-Jan-22 04:33N 29°40' W 091°14'1313.5
2015-Jan-22 03:34N 29°27' W 091°17'5 0.3
2015-Jan-21 11:34N 29°24' W 091°22'1313.3
2015-Jan-21 10:33N 29°35' W 091°14'5 4.7
2015-Jan-21 09:33N 29°40' W 091°14'2 1.6
2015-Jan-21 08:33N 29°41' W 091°13'1 1.0
2015-Jan-21 07:33N 29°41' W 091°12'0 0.0
2015-Jan-21 06:33N 29°41' W 091°12'9 9.5
2015-Jan-21 05:34N 29°32' W 091°16'1413.5
2015-Jan-21 04:33N 29°21' W 091°24'2 0.1
2015-Jan-20 11:13N 29°20' W 091°25'1320.1
2015-Jan-20 10:33N 29°31' W 091°16'1111.2
2015-Jan-20 09:33N 29°41' W 091°12'0 0.1
2015-Jan-20 08:33N 29°41' W 091°12'0 0.0
2015-Jan-20 07:33N 29°41' W 091°12'0 0.4
2015-Jan-20 06:33N 29°41' W 091°12'3 2.9
2015-Jan-20 05:33N 29°39' W 091°14'1111.2
2015-Jan-20 04:34N 29°28' W 091°17'  

Dump ship's entire track history